Albright, WV (26519)

12:04 PM EST on January 17, 2017 (GMT -0500)
Herring Road | | Change Station

Elev 2200 ft 39.52 °N, 79.73 °W | Updated 12 minutes ago

Overcast
Overcast
54.4 °F
Feels Like 54.4 °F
N
0.0
Wind Variable Wind from WSW
Gusts 0.0 mph

Today
High -- | Low -- °F
--% Chance of Precip.
Yesterday
High -- | Low -- °F
Precip. -- in
Pressure 29.94 in
Visibility 10.0 miles
Clouds Mostly Cloudy 2000 ft
Overcast 3500 ft
Dew Point 50 °F
Humidity 85%
Rainfall 0.18 in
Snow Depth Not available.
7:36 AM 5:21 PM
Waning Gibbous, 71% visible
METAR KMGW 171653Z 21008KT 10SM BKN020 OVC035 15/12 A2994 RMK AO2 SLP139 T01500117
Pressure 29.94 in
Visibility 10.0 miles
Clouds Mostly Cloudy 2000 ft
Overcast 3500 ft
Dew Point 50 °F
Humidity 85%
Rainfall 0.18 in
Snow Depth Not available.
7:36 AM 5:21 PM
Waning Gibbous, 71% visible
METAR KMGW 171653Z 21008KT 10SM BKN020 OVC035 15/12 A2994 RMK AO2 SLP139 T01500117

Get Your Daily Forecast Email!

Thanks for signing up!

Be on the lookout for a verification email in your inbox.

You'll start receiving the daily forecast at 8 AM.

×

10-Day Weather Forecast

Almanac

Astronomy

Jan. 17, 2017 Rise Set
Actual Time
Civil Twilight
Nautical Twilight
Astronomical Twilight
Moon
Length of Visible Light
Length of Day
Tomorrow will be .
, % of the Moon is Illuminated

Today's Extremes

State Highs State Lows

Community

WunderPhotos

Upload Photos

1,962,540 photos uploaded!

WunderBlog® & News

Nearby

Air Quality

  Air Quality AQ Index Pollutant
Not available.

Snow Depth

Station Depth Elevation

Earthquake Activity

City Distance Mag. Time & Date
Minimum magnitude displayed is 2.5.

Coastal Water Temperatures

Place Temperature

Stations

Nearby Weather Stations

Station Location Temp. Windchill Dew Point Humidity Wind Precip. Elev Updated Type
                   

Watches & Warnings

There are currently no watches in effect.